sensor_id;sensor_type;location;lat;lon;timestamp;temperature;humidity
69324;DHT22;56470;47.350;8.718;2023-03-20T00:01:29;11.98;67.45
69324;DHT22;56470;47.350;8.718;2023-03-20T00:03:58;11.98;67.61
69324;DHT22;56470;47.350;8.718;2023-03-20T00:06:27;11.94;67.65
69324;DHT22;56470;47.350;8.718;2023-03-20T00:08:53;11.94;67.66
69324;DHT22;56470;47.350;8.718;2023-03-20T00:13:51;12.08;67.63
69324;DHT22;56470;47.350;8.718;2023-03-20T00:16:21;12.08;67.59
69324;DHT22;56470;47.350;8.718;2023-03-20T00:18:50;12.09;67.74
69324;DHT22;56470;47.350;8.718;2023-03-20T00:21:17;12.08;67.64
69324;DHT22;56470;47.350;8.718;2023-03-20T00:23:43;12.15;67.66
69324;DHT22;56470;47.350;8.718;2023-03-20T00:26:14;12.18;67.52
69324;DHT22;56470;47.350;8.718;2023-03-20T00:28:43;12.21;67.55
69324;DHT22;56470;47.350;8.718;2023-03-20T00:31:31;12.22;68.03
69324;DHT22;56470;47.350;8.718;2023-03-20T00:34:04;12.23;67.34
69324;DHT22;56470;47.350;8.718;2023-03-20T00:36:32;12.25;67.28
69324;DHT22;56470;47.350;8.718;2023-03-20T00:39:00;12.22;67.13
69324;DHT22;56470;47.350;8.718;2023-03-20T00:44:04;12.18;67.22
69324;DHT22;56470;47.350;8.718;2023-03-20T00:49:28;12.15;67.40
69324;DHT22;56470;47.350;8.718;2023-03-20T00:52:03;12.16;67.63
69324;DHT22;56470;47.350;8.718;2023-03-20T00:54:40;12.15;67.83
69324;DHT22;56470;47.350;8.718;2023-03-20T00:57:16;12.14;67.72
69324;DHT22;56470;47.350;8.718;2023-03-20T01:02:40;12.05;67.73
69324;DHT22;56470;47.350;8.718;2023-03-20T01:05:05;12.04;67.86
69324;DHT22;56470;47.350;8.718;2023-03-20T01:07:31;12.01;67.85
69324;DHT22;56470;47.350;8.718;2023-03-20T01:09:56;11.95;68.20
69324;DHT22;56470;47.350;8.718;2023-03-20T01:12:24;11.89;68.32
69324;DHT22;56470;47.350;8.718;2023-03-20T01:14:53;11.92;68.53
69324;DHT22;56470;47.350;8.718;2023-03-20T01:17:30;11.95;68.44
69324;DHT22;56470;47.350;8.718;2023-03-20T01:20:00;11.97;68.44
69324;DHT22;56470;47.350;8.718;2023-03-20T01:22:26;12.04;68.46
69324;DHT22;56470;47.350;8.718;2023-03-20T01:24:54;12.06;68.06
69324;DHT22;56470;47.350;8.718;2023-03-20T01:27:20;12.02;68.21
69324;DHT22;56470;47.350;8.718;2023-03-20T01:29:47;12.02;68.36
69324;DHT22;56470;47.350;8.718;2023-03-20T01:32:18;12.01;68.30
69324;DHT22;56470;47.350;8.718;2023-03-20T01:34:43;12.01;68.37
69324;DHT22;56470;47.350;8.718;2023-03-20T01:37:24;12.01;68.31
69324;DHT22;56470;47.350;8.718;2023-03-20T01:39:49;12.01;68.31
69324;DHT22;56470;47.350;8.718;2023-03-20T01:42:15;11.94;68.55
69324;DHT22;56470;47.350;8.718;2023-03-20T01:44:41;11.94;68.57
69324;DHT22;56470;47.350;8.718;2023-03-20T01:47:38;11.84;70.45
69324;DHT22;56470;47.350;8.718;2023-03-20T01:50:29;11.82;69.82
69324;DHT22;56470;47.350;8.718;2023-03-20T01:53:03;11.84;68.77
69324;DHT22;56470;47.350;8.718;2023-03-20T01:55:30;11.88;68.83
69324;DHT22;56470;47.350;8.718;2023-03-20T01:58:07;11.92;68.69
69324;DHT22;56470;47.350;8.718;2023-03-20T02:00:34;11.92;68.70
69324;DHT22;56470;47.350;8.718;2023-03-20T02:03:17;11.94;68.69
69324;DHT22;56470;47.350;8.718;2023-03-20T02:05:52;11.89;68.92
69324;DHT22;56470;47.350;8.718;2023-03-20T02:08:40;11.92;69.13
69324;DHT22;56470;47.350;8.718;2023-03-20T02:11:17;11.95;69.03
69324;DHT22;56470;47.350;8.718;2023-03-20T02:13:49;11.95;68.96
69324;DHT22;56470;47.350;8.718;2023-03-20T02:16:16;11.95;69.09
69324;DHT22;56470;47.350;8.718;2023-03-20T02:18:48;11.95;68.95
69324;DHT22;56470;47.350;8.718;2023-03-20T02:24:50;11.89;70.33
69324;DHT22;56470;47.350;8.718;2023-03-20T02:30:37;11.85;69.90
69324;DHT22;56470;47.350;8.718;2023-03-20T02:38:59;11.92;70.64
69324;DHT22;56470;47.350;8.718;2023-03-20T02:41:29;11.94;69.59
69324;DHT22;56470;47.350;8.718;2023-03-20T02:52:33;11.82;70.41
69324;DHT22;56470;47.350;8.718;2023-03-20T02:55:37;11.87;70.09
69324;DHT22;56470;47.350;8.718;2023-03-20T03:03:54;11.88;69.95
69324;DHT22;56470;47.350;8.718;2023-03-20T03:06:35;11.91;70.51
69324;DHT22;56470;47.350;8.718;2023-03-20T03:09:16;11.89;69.85
69324;DHT22;56470;47.350;8.718;2023-03-20T03:11:55;11.88;69.69
69324;DHT22;56470;47.350;8.718;2023-03-20T03:14:42;11.81;71.21
69324;DHT22;56470;47.350;8.718;2023-03-20T03:17:12;11.85;69.89
69324;DHT22;56470;47.350;8.718;2023-03-20T03:19:40;11.82;69.92
69324;DHT22;56470;47.350;8.718;2023-03-20T03:22:12;11.80;70.02
69324;DHT22;56470;47.350;8.718;2023-03-20T03:24:46;11.78;69.98
69324;DHT22;56470;47.350;8.718;2023-03-20T03:27:25;11.74;70.15
69324;DHT22;56470;47.350;8.718;2023-03-20T03:29:56;11.71;70.29
69324;DHT22;56470;47.350;8.718;2023-03-20T03:32:29;11.70;70.46
69324;DHT22;56470;47.350;8.718;2023-03-20T03:34:56;11.69;70.59
69324;DHT22;56470;47.350;8.718;2023-03-20T03:42:42;11.67;70.71
69324;DHT22;56470;47.350;8.718;2023-03-20T03:45:17;11.69;70.62
69324;DHT22;56470;47.350;8.718;2023-03-20T03:47:46;11.70;70.66
69324;DHT22;56470;47.350;8.718;2023-03-20T03:50:22;11.67;70.70
69324;DHT22;56470;47.350;8.718;2023-03-20T03:53:02;11.69;70.75
69324;DHT22;56470;47.350;8.718;2023-03-20T03:55:40;11.70;70.89
69324;DHT22;56470;47.350;8.718;2023-03-20T03:58:29;11.71;71.84
69324;DHT22;56470;47.350;8.718;2023-03-20T04:01:10;11.74;70.84
69324;DHT22;56470;47.350;8.718;2023-03-20T04:03:43;11.77;70.92
69324;DHT22;56470;47.350;8.718;2023-03-20T04:06:14;11.84;70.95
69324;DHT22;56470;47.350;8.718;2023-03-20T04:08:45;11.88;70.71
69324;DHT22;56470;47.350;8.718;2023-03-20T04:11:20;11.88;70.83
69324;DHT22;56470;47.350;8.718;2023-03-20T04:13:53;11.88;70.82
69324;DHT22;56470;47.350;8.718;2023-03-20T04:16:26;11.85;71.13
69324;DHT22;56470;47.350;8.718;2023-03-20T04:18:52;11.87;71.10
69324;DHT22;56470;47.350;8.718;2023-03-20T04:21:20;11.92;71.10
69324;DHT22;56470;47.350;8.718;2023-03-20T04:23:47;11.94;70.94
69324;DHT22;56470;47.350;8.718;2023-03-20T04:26:16;11.99;70.72
69324;DHT22;56470;47.350;8.718;2023-03-20T04:28:46;11.95;70.74
69324;DHT22;56470;47.350;8.718;2023-03-20T04:31:16;11.97;70.57
69324;DHT22;56470;47.350;8.718;2023-03-20T04:33:47;11.92;70.79
69324;DHT22;56470;47.350;8.718;2023-03-20T04:36:13;11.92;70.75
69324;DHT22;56470;47.350;8.718;2023-03-20T04:38:39;11.91;70.88
69324;DHT22;56470;47.350;8.718;2023-03-20T04:41:07;11.89;70.66
69324;DHT22;56470;47.350;8.718;2023-03-20T04:43:33;11.85;70.86
69324;DHT22;56470;47.350;8.718;2023-03-20T04:45:58;11.81;70.95
69324;DHT22;56470;47.350;8.718;2023-03-20T04:48:24;11.78;71.01
69324;DHT22;56470;47.350;8.718;2023-03-20T04:50:49;11.77;71.23
69324;DHT22;56470;47.350;8.718;2023-03-20T04:53:16;11.78;71.15
69324;DHT22;56470;47.350;8.718;2023-03-20T04:55:41;11.78;71.09
69324;DHT22;56470;47.350;8.718;2023-03-20T04:58:07;11.78;71.17
69324;DHT22;56470;47.350;8.718;2023-03-20T05:00:33;11.77;71.31
69324;DHT22;56470;47.350;8.718;2023-03-20T05:02:59;11.78;71.44
69324;DHT22;56470;47.350;8.718;2023-03-20T05:05:24;11.80;71.37
69324;DHT22;56470;47.350;8.718;2023-03-20T05:07:50;11.80;71.26
69324;DHT22;56470;47.350;8.718;2023-03-20T05:10:16;11.77;71.28
69324;DHT22;56470;47.350;8.718;2023-03-20T05:12:41;11.78;71.46
69324;DHT22;56470;47.350;8.718;2023-03-20T05:15:07;11.75;71.53
69324;DHT22;56470;47.350;8.718;2023-03-20T05:17:33;11.75;71.56
69324;DHT22;56470;47.350;8.718;2023-03-20T05:19:58;11.74;71.56
69324;DHT22;56470;47.350;8.718;2023-03-20T05:22:24;11.75;71.45
69324;DHT22;56470;47.350;8.718;2023-03-20T05:24:49;11.74;71.42
69324;DHT22;56470;47.350;8.718;2023-03-20T05:27:14;11.70;71.51
69324;DHT22;56470;47.350;8.718;2023-03-20T05:29:40;11.69;71.39
69324;DHT22;56470;47.350;8.718;2023-03-20T05:32:05;11.64;71.40
69324;DHT22;56470;47.350;8.718;2023-03-20T05:34:31;11.64;71.36
69324;DHT22;56470;47.350;8.718;2023-03-20T05:36:56;11.60;71.54
69324;DHT22;56470;47.350;8.718;2023-03-20T05:39:22;11.63;71.59
69324;DHT22;56470;47.350;8.718;2023-03-20T05:41:47;11.61;71.75
69324;DHT22;56470;47.350;8.718;2023-03-20T05:44:12;11.63;71.76
69324;DHT22;56470;47.350;8.718;2023-03-20T05:46:38;11.63;71.75
69324;DHT22;56470;47.350;8.718;2023-03-20T05:49:03;11.63;71.64
69324;DHT22;56470;47.350;8.718;2023-03-20T05:51:29;11.63;71.69
69324;DHT22;56470;47.350;8.718;2023-03-20T05:53:54;11.63;71.95
69324;DHT22;56470;47.350;8.718;2023-03-20T05:56:19;11.60;71.91
69324;DHT22;56470;47.350;8.718;2023-03-20T05:58:45;11.63;71.86
69324;DHT22;56470;47.350;8.718;2023-03-20T06:01:10;11.66;71.89
69324;DHT22;56470;47.350;8.718;2023-03-20T06:03:38;11.67;72.00
69324;DHT22;56470;47.350;8.718;2023-03-20T06:06:03;11.64;71.73
69324;DHT22;56470;47.350;8.718;2023-03-20T06:08:29;11.64;71.72
69324;DHT22;56470;47.350;8.718;2023-03-20T06:10:55;11.67;71.54
69324;DHT22;56470;47.350;8.718;2023-03-20T06:13:20;11.67;71.65
69324;DHT22;56470;47.350;8.718;2023-03-20T06:15:45;11.67;71.38
69324;DHT22;56470;47.350;8.718;2023-03-20T06:18:11;11.61;71.71
69324;DHT22;56470;47.350;8.718;2023-03-20T06:20:36;11.56;71.53
69324;DHT22;56470;47.350;8.718;2023-03-20T06:23:01;11.52;71.43
69324;DHT22;56470;47.350;8.718;2023-03-20T06:25:26;11.43;71.63
69324;DHT22;56470;47.350;8.718;2023-03-20T06:27:52;11.37;71.90
69324;DHT22;56470;47.350;8.718;2023-03-20T06:30:20;11.40;71.81
69324;DHT22;56470;47.350;8.718;2023-03-20T06:32:45;11.36;72.15
69324;DHT22;56470;47.350;8.718;2023-03-20T06:35:12;11.36;71.99
69324;DHT22;56470;47.350;8.718;2023-03-20T06:37:38;11.35;72.20
69324;DHT22;56470;47.350;8.718;2023-03-20T06:40:04;11.36;72.06
69324;DHT22;56470;47.350;8.718;2023-03-20T06:42:30;11.40;72.20
69324;DHT22;56470;47.350;8.718;2023-03-20T06:44:55;11.44;72.19
69324;DHT22;56470;47.350;8.718;2023-03-20T06:47:21;11.43;72.06
69324;DHT22;56470;47.350;8.718;2023-03-20T06:49:46;11.42;71.96
69324;DHT22;56470;47.350;8.718;2023-03-20T06:52:14;11.42;71.83
69324;DHT22;56470;47.350;8.718;2023-03-20T06:54:40;11.43;71.83
69324;DHT22;56470;47.350;8.718;2023-03-20T06:57:06;11.40;71.84
69324;DHT22;56470;47.350;8.718;2023-03-20T06:59:31;11.40;72.01
69324;DHT22;56470;47.350;8.718;2023-03-20T07:01:56;11.42;71.92
69324;DHT22;56470;47.350;8.718;2023-03-20T07:04:22;11.44;72.05
69324;DHT22;56470;47.350;8.718;2023-03-20T07:06:48;11.47;71.94
69324;DHT22;56470;47.350;8.718;2023-03-20T07:09:13;11.52;71.79
69324;DHT22;56470;47.350;8.718;2023-03-20T07:11:38;11.52;71.73
69324;DHT22;56470;47.350;8.718;2023-03-20T07:14:04;11.56;71.69
69324;DHT22;56470;47.350;8.718;2023-03-20T07:16:30;11.59;71.64
69324;DHT22;56470;47.350;8.718;2023-03-20T07:18:56;11.60;71.68
69324;DHT22;56470;47.350;8.718;2023-03-20T07:21:21;11.64;71.56
69324;DHT22;56470;47.350;8.718;2023-03-20T07:23:47;11.71;71.56
69324;DHT22;56470;47.350;8.718;2023-03-20T07:26:12;11.74;71.55
69324;DHT22;56470;47.350;8.718;2023-03-20T07:28:38;11.80;71.37
69324;DHT22;56470;47.350;8.718;2023-03-20T07:31:03;11.81;71.21
69324;DHT22;56470;47.350;8.718;2023-03-20T07:33:29;11.82;71.12
69324;DHT22;56470;47.350;8.718;2023-03-20T07:35:55;11.81;70.99
69324;DHT22;56470;47.350;8.718;2023-03-20T07:38:21;11.82;70.84
69324;DHT22;56470;47.350;8.718;2023-03-20T07:40:47;11.84;70.70
69324;DHT22;56470;47.350;8.718;2023-03-20T07:43:14;11.85;70.75
69324;DHT22;56470;47.350;8.718;2023-03-20T07:45:39;11.88;70.70
69324;DHT22;56470;47.350;8.718;2023-03-20T07:48:05;11.92;70.72
69324;DHT22;56470;47.350;8.718;2023-03-20T07:50:30;11.98;70.77
69324;DHT22;56470;47.350;8.718;2023-03-20T07:52:56;12.04;70.46
69324;DHT22;56470;47.350;8.718;2023-03-20T07:55:22;12.11;70.11
69324;DHT22;56470;47.350;8.718;2023-03-20T07:57:48;12.15;69.77
69324;DHT22;56470;47.350;8.718;2023-03-20T08:00:14;12.19;69.32
69324;DHT22;56470;47.350;8.718;2023-03-20T08:02:40;12.23;69.13
69324;DHT22;56470;47.350;8.718;2023-03-20T08:05:06;12.28;68.95
69324;DHT22;56470;47.350;8.718;2023-03-20T08:07:32;12.36;68.83
69324;DHT22;56470;47.350;8.718;2023-03-20T08:09:58;12.37;68.58
69324;DHT22;56470;47.350;8.718;2023-03-20T08:12:24;12.44;68.45
69324;DHT22;56470;47.350;8.718;2023-03-20T08:14:49;12.49;68.36
69324;DHT22;56470;47.350;8.718;2023-03-20T08:17:14;12.53;68.26
69324;DHT22;56470;47.350;8.718;2023-03-20T08:19:40;12.59;68.09
69324;DHT22;56470;47.350;8.718;2023-03-20T08:22:05;12.64;67.90
69324;DHT22;56470;47.350;8.718;2023-03-20T08:24:31;12.68;67.73
69324;DHT22;56470;47.350;8.718;2023-03-20T08:26:56;12.70;67.55
69324;DHT22;56470;47.350;8.718;2023-03-20T08:29:22;12.70;67.52
69324;DHT22;56470;47.350;8.718;2023-03-20T08:31:47;12.70;67.39
69324;DHT22;56470;47.350;8.718;2023-03-20T08:34:12;12.68;67.34
69324;DHT22;56470;47.350;8.718;2023-03-20T08:36:37;12.74;67.22
69324;DHT22;56470;47.350;8.718;2023-03-20T08:39:06;12.80;67.13
69324;DHT22;56470;47.350;8.718;2023-03-20T08:41:35;12.83;66.97
69324;DHT22;56470;47.350;8.718;2023-03-20T08:44:01;12.87;66.73
69324;DHT22;56470;47.350;8.718;2023-03-20T08:46:27;12.92;66.61
69324;DHT22;56470;47.350;8.718;2023-03-20T08:48:52;12.99;66.49
69324;DHT22;56470;47.350;8.718;2023-03-20T08:51:17;13.02;66.29
69324;DHT22;56470;47.350;8.718;2023-03-20T08:53:43;13.12;66.06
69324;DHT22;56470;47.350;8.718;2023-03-20T08:56:09;13.19;65.75
69324;DHT22;56470;47.350;8.718;2023-03-20T08:58:34;13.25;65.52
69324;DHT22;56470;47.350;8.718;2023-03-20T09:01:07;13.35;65.16
69324;DHT22;56470;47.350;8.718;2023-03-20T09:03:33;13.42;65.04
69324;DHT22;56470;47.350;8.718;2023-03-20T09:05:58;13.38;64.53
69324;DHT22;56470;47.350;8.718;2023-03-20T09:08:24;13.40;64.57
69324;DHT22;56470;47.350;8.718;2023-03-20T09:10:49;13.49;64.49
69324;DHT22;56470;47.350;8.718;2023-03-20T09:13:15;13.60;64.37
69324;DHT22;56470;47.350;8.718;2023-03-20T09:15:41;13.67;64.27
69324;DHT22;56470;47.350;8.718;2023-03-20T09:18:07;13.77;64.09
69324;DHT22;56470;47.350;8.718;2023-03-20T09:20:32;13.79;63.90
69324;DHT22;56470;47.350;8.718;2023-03-20T09:22:58;13.87;63.75
69324;DHT22;56470;47.350;8.718;2023-03-20T09:25:23;13.88;63.47
69324;DHT22;56470;47.350;8.718;2023-03-20T09:27:52;13.87;63.33
69324;DHT22;56470;47.350;8.718;2023-03-20T09:30:20;13.89;63.21
69324;DHT22;56470;47.350;8.718;2023-03-20T09:32:46;13.95;63.23
69324;DHT22;56470;47.350;8.718;2023-03-20T09:35:11;13.97;63.06
69324;DHT22;56470;47.350;8.718;2023-03-20T09:37:37;14.00;62.90
69324;DHT22;56470;47.350;8.718;2023-03-20T09:40:03;14.05;62.71
69324;DHT22;56470;47.350;8.718;2023-03-20T09:42:43;14.00;62.02
69324;DHT22;56470;47.350;8.718;2023-03-20T09:45:23;14.05;62.19
69324;DHT22;56470;47.350;8.718;2023-03-20T09:53:24;14.15;61.96
69324;DHT22;56470;47.350;8.718;2023-03-20T09:55:53;14.16;61.92
69324;DHT22;56470;47.350;8.718;2023-03-20T10:00:50;14.22;61.80
69324;DHT22;56470;47.350;8.718;2023-03-20T10:06:03;14.33;61.84
69324;DHT22;56470;47.350;8.718;2023-03-20T10:08:45;14.34;61.12
69324;DHT22;56470;47.350;8.718;2023-03-20T10:11:41;14.30;61.65
69324;DHT22;56470;47.350;8.718;2023-03-20T10:17:03;14.30;60.93
69324;DHT22;56470;47.350;8.718;2023-03-20T10:22:21;14.36;61.07
69324;DHT22;56470;47.350;8.718;2023-03-20T10:27:45;14.41;61.09
69324;DHT22;56470;47.350;8.718;2023-03-20T10:30:38;14.40;59.95
69324;DHT22;56470;47.350;8.718;2023-03-20T10:36:03;14.39;60.17
69324;DHT22;56470;47.350;8.718;2023-03-20T10:38:44;14.39;60.30
69324;DHT22;56470;47.350;8.718;2023-03-20T10:41:15;14.36;60.18
69324;DHT22;56470;47.350;8.718;2023-03-20T10:43:43;14.33;59.77
69324;DHT22;56470;47.350;8.718;2023-03-20T10:46:13;14.33;59.68
69324;DHT22;56470;47.350;8.718;2023-03-20T10:48:44;14.34;59.36
69324;DHT22;56470;47.350;8.718;2023-03-20T10:51:19;14.36;59.21
69324;DHT22;56470;47.350;8.718;2023-03-20T10:53:51;14.39;58.71
69324;DHT22;56470;47.350;8.718;2023-03-20T10:56:31;14.33;57.65
69324;DHT22;56470;47.350;8.718;2023-03-20T10:59:12;14.33;58.53
69324;DHT22;56470;47.350;8.718;2023-03-20T11:01:39;14.32;58.59
69324;DHT22;56470;47.350;8.718;2023-03-20T11:04:05;14.36;58.41
69324;DHT22;56470;47.350;8.718;2023-03-20T11:06:35;14.40;58.16
69324;DHT22;56470;47.350;8.718;2023-03-20T11:09:11;14.39;57.60
69324;DHT22;56470;47.350;8.718;2023-03-20T11:11:45;14.44;58.10
69324;DHT22;56470;47.350;8.718;2023-03-20T11:14:17;14.49;57.74
69324;DHT22;56470;47.350;8.718;2023-03-20T11:16:46;14.49;57.94
69324;DHT22;56470;47.350;8.718;2023-03-20T11:19:13;14.49;57.84
69324;DHT22;56470;47.350;8.718;2023-03-20T11:21:56;14.49;56.00
69324;DHT22;56470;47.350;8.718;2023-03-20T11:24:41;14.47;56.42
69324;DHT22;56470;47.350;8.718;2023-03-20T11:29:32;14.55;57.51
69324;DHT22;56470;47.350;8.718;2023-03-20T11:32:05;14.55;57.42
69324;DHT22;56470;47.350;8.718;2023-03-20T11:34:35;14.60;57.40
69324;DHT22;56470;47.350;8.718;2023-03-20T11:37:06;14.61;57.38
69324;DHT22;56470;47.350;8.718;2023-03-20T11:39:59;14.64;56.66
69324;DHT22;56470;47.350;8.718;2023-03-20T11:42:27;14.70;57.35
69324;DHT22;56470;47.350;8.718;2023-03-20T11:45:01;14.70;57.22
69324;DHT22;56470;47.350;8.718;2023-03-20T11:47:31;14.75;57.19
69324;DHT22;56470;47.350;8.718;2023-03-20T11:49:59;14.77;57.02
69324;DHT22;56470;47.350;8.718;2023-03-20T11:52:36;14.75;55.96
69324;DHT22;56470;47.350;8.718;2023-03-20T11:55:06;14.74;56.80
69324;DHT22;56470;47.350;8.718;2023-03-20T11:57:38;14.81;56.60
69324;DHT22;56470;47.350;8.718;2023-03-20T12:00:25;14.77;55.08
69324;DHT22;56470;47.350;8.718;2023-03-20T12:02:52;14.80;56.47
69324;DHT22;56470;47.350;8.718;2023-03-20T12:05:28;14.81;55.88
69324;DHT22;56470;47.350;8.718;2023-03-20T12:07:56;14.85;56.39
69324;DHT22;56470;47.350;8.718;2023-03-20T12:10:27;14.88;56.23
69324;DHT22;56470;47.350;8.718;2023-03-20T12:12:56;14.84;56.11
69324;DHT22;56470;47.350;8.718;2023-03-20T12:15:33;14.83;55.90
69324;DHT22;56470;47.350;8.718;2023-03-20T12:18:12;14.83;56.28
69324;DHT22;56470;47.350;8.718;2023-03-20T12:23:33;14.83;56.09
69324;DHT22;56470;47.350;8.718;2023-03-20T12:26:10;14.81;55.79
69324;DHT22;56470;47.350;8.718;2023-03-20T12:31:41;14.84;55.16
69324;DHT22;56470;47.350;8.718;2023-03-20T12:34:23;14.84;56.05
69324;DHT22;56470;47.350;8.718;2023-03-20T12:36:50;14.83;55.83
69324;DHT22;56470;47.350;8.718;2023-03-20T12:39:22;14.78;55.88
69324;DHT22;56470;47.350;8.718;2023-03-20T12:44:50;14.78;55.69
69324;DHT22;56470;47.350;8.718;2023-03-20T12:58:04;14.84;55.61
69324;DHT22;56470;47.350;8.718;2023-03-20T13:00:36;14.84;55.95
69324;DHT22;56470;47.350;8.718;2023-03-20T13:03:11;14.84;55.75
69324;DHT22;56470;47.350;8.718;2023-03-20T13:11:44;14.85;54.57
69324;DHT22;56470;47.350;8.718;2023-03-20T13:16:47;14.87;55.79
69324;DHT22;56470;47.350;8.718;2023-03-20T13:19:30;14.83;54.90
69324;DHT22;56470;47.350;8.718;2023-03-20T13:22:05;14.80;55.50
69324;DHT22;56470;47.350;8.718;2023-03-20T13:24:40;14.81;55.63
69324;DHT22;56470;47.350;8.718;2023-03-20T13:29:59;14.81;55.17
69324;DHT22;56470;47.350;8.718;2023-03-20T13:32:29;14.85;54.94
69324;DHT22;56470;47.350;8.718;2023-03-20T13:37:51;14.85;54.68
69324;DHT22;56470;47.350;8.718;2023-03-20T13:40:30;14.87;54.92
69324;DHT22;56470;47.350;8.718;2023-03-20T13:43:24;14.85;54.54
69324;DHT22;56470;47.350;8.718;2023-03-20T13:46:17;14.88;55.21
69324;DHT22;56470;47.350;8.718;2023-03-20T13:48:43;14.91;54.96
69324;DHT22;56470;47.350;8.718;2023-03-20T13:54:18;14.91;53.82
69324;DHT22;56470;47.350;8.718;2023-03-20T14:04:37;14.92;54.46
69324;DHT22;56470;47.350;8.718;2023-03-20T14:07:36;14.89;52.81
69324;DHT22;56470;47.350;8.718;2023-03-20T14:15:18;14.87;54.33
69324;DHT22;56470;47.350;8.718;2023-03-20T14:17:46;14.83;54.08
69324;DHT22;56470;47.350;8.718;2023-03-20T14:20:21;14.75;53.50
69324;DHT22;56470;47.350;8.718;2023-03-20T14:22:50;14.73;53.56
69324;DHT22;56470;47.350;8.718;2023-03-20T14:25:18;14.67;53.99
69324;DHT22;56470;47.350;8.718;2023-03-20T14:32:58;14.67;54.01
69324;DHT22;56470;47.350;8.718;2023-03-20T14:35:26;14.70;53.96
69324;DHT22;56470;47.350;8.718;2023-03-20T14:38:33;14.63;52.91
69324;DHT22;56470;47.350;8.718;2023-03-20T14:41:18;14.61;52.62
69324;DHT22;56470;47.350;8.718;2023-03-20T14:43:57;14.57;53.61
69324;DHT22;56470;47.350;8.718;2023-03-20T14:46:30;14.53;54.11
69324;DHT22;56470;47.350;8.718;2023-03-20T14:51:51;14.56;54.14
69324;DHT22;56470;47.350;8.718;2023-03-20T14:56:45;14.59;54.11
69324;DHT22;56470;47.350;8.718;2023-03-20T14:59:13;14.57;54.14
69324;DHT22;56470;47.350;8.718;2023-03-20T15:04:27;14.47;53.59
69324;DHT22;56470;47.350;8.718;2023-03-20T15:06:57;14.50;54.06
69324;DHT22;56470;47.350;8.718;2023-03-20T15:09:25;14.53;54.12
69324;DHT22;56470;47.350;8.718;2023-03-20T15:11:52;14.51;54.09
69324;DHT22;56470;47.350;8.718;2023-03-20T15:14:25;14.51;53.93
69324;DHT22;56470;47.350;8.718;2023-03-20T15:16:59;14.50;53.80
69324;DHT22;56470;47.350;8.718;2023-03-20T15:19:25;14.47;54.00
69324;DHT22;56470;47.350;8.718;2023-03-20T15:21:52;14.44;54.11
69324;DHT22;56470;47.350;8.718;2023-03-20T15:24:19;14.47;54.16
69324;DHT22;56470;47.350;8.718;2023-03-20T15:26:45;14.46;54.10
69324;DHT22;56470;47.350;8.718;2023-03-20T15:29:14;14.43;54.19
69324;DHT22;56470;47.350;8.718;2023-03-20T15:31:41;14.47;54.21
69324;DHT22;56470;47.350;8.718;2023-03-20T15:34:30;14.46;53.56
69324;DHT22;56470;47.350;8.718;2023-03-20T15:36:57;14.49;54.19
69324;DHT22;56470;47.350;8.718;2023-03-20T15:39:28;14.49;54.12
69324;DHT22;56470;47.350;8.718;2023-03-20T15:41:55;14.49;53.96
69324;DHT22;56470;47.350;8.718;2023-03-20T15:44:41;14.53;53.94
69324;DHT22;56470;47.350;8.718;2023-03-20T15:47:16;14.50;53.57
69324;DHT22;56470;47.350;8.718;2023-03-20T15:49:52;14.51;53.94
69324;DHT22;56470;47.350;8.718;2023-03-20T15:54:54;14.49;53.77
69324;DHT22;56470;47.350;8.718;2023-03-20T15:57:25;14.44;53.74
69324;DHT22;56470;47.350;8.718;2023-03-20T15:59:54;14.49;53.76
69324;DHT22;56470;47.350;8.718;2023-03-20T16:02:20;14.49;53.77
69324;DHT22;56470;47.350;8.718;2023-03-20T16:04:49;14.49;53.76
69324;DHT22;56470;47.350;8.718;2023-03-20T16:07:26;14.47;53.66
69324;DHT22;56470;47.350;8.718;2023-03-20T16:09:52;14.49;53.65
69324;DHT22;56470;47.350;8.718;2023-03-20T16:12:18;14.53;53.68
69324;DHT22;56470;47.350;8.718;2023-03-20T16:14:48;14.49;53.46
69324;DHT22;56470;47.350;8.718;2023-03-20T16:17:15;14.50;53.43
69324;DHT22;56470;47.350;8.718;2023-03-20T16:19:41;14.50;53.28
69324;DHT22;56470;47.350;8.718;2023-03-20T16:24:45;14.46;53.39
69324;DHT22;56470;47.350;8.718;2023-03-20T16:27:15;14.47;53.39
69324;DHT22;56470;47.350;8.718;2023-03-20T16:29:43;14.47;53.17
69324;DHT22;56470;47.350;8.718;2023-03-20T16:32:35;14.39;52.35
69324;DHT22;56470;47.350;8.718;2023-03-20T16:35:10;14.43;53.42
69324;DHT22;56470;47.350;8.718;2023-03-20T16:37:42;14.46;53.34
69324;DHT22;56470;47.350;8.718;2023-03-20T16:40:16;14.46;53.26
69324;DHT22;56470;47.350;8.718;2023-03-20T16:42:42;14.41;53.19
69324;DHT22;56470;47.350;8.718;2023-03-20T16:45:30;14.40;52.60
69324;DHT22;56470;47.350;8.718;2023-03-20T16:50:38;14.39;53.22
69324;DHT22;56470;47.350;8.718;2023-03-20T16:53:15;14.39;53.10
69324;DHT22;56470;47.350;8.718;2023-03-20T16:55:46;14.39;53.23
69324;DHT22;56470;47.350;8.718;2023-03-20T16:58:17;14.37;53.19
69324;DHT22;56470;47.350;8.718;2023-03-20T17:01:07;14.34;53.28
69324;DHT22;56470;47.350;8.718;2023-03-20T17:03:39;14.33;53.42
69324;DHT22;56470;47.350;8.718;2023-03-20T17:08:47;14.36;53.45
69324;DHT22;56470;47.350;8.718;2023-03-20T17:11:22;14.32;53.44
69324;DHT22;56470;47.350;8.718;2023-03-20T17:13:50;14.33;53.39
69324;DHT22;56470;47.350;8.718;2023-03-20T17:16:19;14.30;53.43
69324;DHT22;56470;47.350;8.718;2023-03-20T17:18:46;14.33;53.41
69324;DHT22;56470;47.350;8.718;2023-03-20T17:21:12;14.28;53.46
69324;DHT22;56470;47.350;8.718;2023-03-20T17:23:38;14.29;53.50
69324;DHT22;56470;47.350;8.718;2023-03-20T17:26:04;14.29;53.57
69324;DHT22;56470;47.350;8.718;2023-03-20T17:28:38;14.32;53.15
69324;DHT22;56470;47.350;8.718;2023-03-20T17:31:04;14.36;53.38
69324;DHT22;56470;47.350;8.718;2023-03-20T17:33:31;14.36;53.32
69324;DHT22;56470;47.350;8.718;2023-03-20T17:35:58;14.33;53.30
69324;DHT22;56470;47.350;8.718;2023-03-20T17:38:23;14.36;53.29
69324;DHT22;56470;47.350;8.718;2023-03-20T17:40:50;14.36;53.30
69324;DHT22;56470;47.350;8.718;2023-03-20T17:43:17;14.36;53.25
69324;DHT22;56470;47.350;8.718;2023-03-20T17:45:43;14.36;53.23
69324;DHT22;56470;47.350;8.718;2023-03-20T17:48:19;14.33;53.43
69324;DHT22;56470;47.350;8.718;2023-03-20T17:50:47;14.29;53.72
69324;DHT22;56470;47.350;8.718;2023-03-20T17:53:24;14.26;54.12
69324;DHT22;56470;47.350;8.718;2023-03-20T17:55:53;14.25;54.28
69324;DHT22;56470;47.350;8.718;2023-03-20T17:58:21;14.19;54.53
69324;DHT22;56470;47.350;8.718;2023-03-20T18:00:48;14.19;54.62
69324;DHT22;56470;47.350;8.718;2023-03-20T18:03:14;14.15;54.69
69324;DHT22;56470;47.350;8.718;2023-03-20T18:05:41;14.11;54.71
69324;DHT22;56470;47.350;8.718;2023-03-20T18:08:18;14.01;55.08
69324;DHT22;56470;47.350;8.718;2023-03-20T18:10:46;13.94;55.06